createdAt,value
2023-01-04T00:04:20.760Z,1735
2023-01-04T00:09:38.985Z,1746
2023-01-04T00:14:57.187Z,1723
2023-01-04T00:20:15.707Z,1670
2023-01-04T00:25:34.188Z,1634
2023-01-04T00:30:52.667Z,1581
2023-01-04T00:36:10.932Z,1536
2023-01-04T00:41:57.340Z,1497
2023-01-04T00:47:19.368Z,1480
2023-01-04T00:52:37.876Z,1480
2023-01-04T00:57:56.286Z,1484
2023-01-04T01:03:14.941Z,1491
2023-01-04T01:08:33.920Z,1496
2023-01-04T01:13:52.692Z,1510
2023-01-04T01:19:10.897Z,1512
2023-01-04T01:24:29.397Z,1517
2023-01-04T01:29:47.580Z,1525
2023-01-04T01:34:50.165Z,1531
2023-01-04T01:40:08.766Z,1534
2023-01-04T01:45:26.774Z,1533
2023-01-04T01:50:44.705Z,1540
2023-01-04T01:56:02.935Z,1580
2023-01-04T02:01:21.745Z,1629
2023-01-04T02:06:40.480Z,1665
2023-01-04T02:11:58.999Z,1706
2023-01-04T02:17:16.939Z,1727
2023-01-04T02:22:35.152Z,1765
2023-01-04T02:27:54.064Z,1793
2023-01-04T02:33:12.907Z,1796
2023-01-04T02:38:31.659Z,1816
2023-01-04T02:43:50.462Z,1840
2023-01-04T02:49:08.677Z,1877
2023-01-04T02:54:27.472Z,1899
2023-01-04T02:59:46.244Z,1915
2023-01-04T03:05:04.885Z,1917
2023-01-04T03:10:23.340Z,1923
2023-01-04T03:15:41.954Z,1925
2023-01-04T03:21:00.739Z,1916
2023-01-04T03:26:19.518Z,1920
2023-01-04T03:31:22.470Z,1927
2023-01-04T03:36:41.225Z,1937
2023-01-04T03:41:59.729Z,1936
2023-01-04T03:47:17.986Z,1941
2023-01-04T03:52:36.914Z,1929
2023-01-04T03:57:55.142Z,1931
2023-01-04T04:03:13.649Z,1937
2023-01-04T04:08:32.389Z,1944
2023-01-04T04:13:51.183Z,1992
2023-01-04T04:19:09.682Z,1963
2023-01-04T04:24:27.870Z,1939
2023-01-04T04:29:46.381Z,1917
2023-01-04T04:35:05.150Z,1909
2023-01-04T04:40:23.722Z,1917
2023-01-04T04:45:41.948Z,1912
2023-01-04T04:51:00.355Z,1917
2023-01-04T04:56:18.613Z,1926
2023-01-04T05:01:37.247Z,1925
2023-01-04T05:06:56.361Z,1917
2023-01-04T05:11:59.226Z,1911
2023-01-04T05:17:02.106Z,1908
2023-01-04T05:22:20.652Z,1880
2023-01-04T05:27:38.677Z,1860
2023-01-04T05:32:57.187Z,1857
2023-01-04T05:38:17.046Z,1863
2023-01-04T05:43:20.326Z,1882
2023-01-04T05:48:39.122Z,1881
2023-01-04T05:53:57.605Z,1672
2023-01-04T05:59:15.518Z,1665
2023-01-04T06:04:34.085Z,1687
2023-01-04T06:09:52.579Z,1751
2023-01-04T06:15:10.787Z,1779
2023-01-04T06:20:29.268Z,1776
2023-01-04T06:25:47.770Z,1755
2023-01-04T06:31:06.206Z,1740
2023-01-04T06:36:24.927Z,1750
2023-01-04T06:41:43.455Z,1761
2023-01-04T06:47:01.648Z,1751
2023-01-04T06:52:20.417Z,1723
2023-01-04T06:57:38.638Z,1696
2023-01-04T07:03:13.252Z,1648
2023-01-04T07:08:34.372Z,1619
2023-01-04T07:13:53.151Z,1607
2023-01-04T07:19:11.195Z,1583
2023-01-04T07:24:30.733Z,1569
2023-01-04T07:29:49.372Z,1551
2023-01-04T07:35:08.009Z,1534
2023-01-04T07:40:26.487Z,1516
2023-01-04T07:45:45.147Z,1502
2023-01-04T07:51:03.492Z,1492
2023-01-04T07:56:22.263Z,1479
2023-01-04T08:01:40.607Z,1465
2023-01-04T08:06:59.495Z,1456
2023-01-04T08:12:17.975Z,1457
2023-01-04T08:17:36.784Z,1447
2023-01-04T08:22:55.365Z,1435
2023-01-04T08:28:13.713Z,1424
2023-01-04T08:33:32.509Z,1401
2023-01-04T08:39:00.327Z,1385
2023-01-04T08:44:20.165Z,1374
2023-01-04T08:49:38.425Z,1360
2023-01-04T08:54:56.377Z,1351
2023-01-04T09:00:14.886Z,1336
2023-01-04T09:05:33.403Z,1330
2023-01-04T09:10:51.771Z,1316
2023-01-04T09:16:10.571Z,1312
2023-01-04T09:21:29.319Z,1305
2023-01-04T09:26:47.788Z,1291
2023-01-04T09:32:08.156Z,1283
2023-01-04T09:37:35.048Z,1275
2023-01-04T09:43:19.846Z,1267
2023-01-04T09:48:40.377Z,1265
2023-01-04T09:53:58.889Z,1249
2023-01-04T09:59:17.062Z,1243
2023-01-04T10:04:38.788Z,1232
2023-01-04T10:09:56.757Z,1224
2023-01-04T10:15:15.144Z,1218
2023-01-04T10:26:52.582Z,1209
2023-01-04T10:32:11.118Z,1193
2023-01-04T10:37:29.281Z,1167
2023-01-04T10:42:47.814Z,1159
2023-01-04T10:48:06.010Z,1147
2023-01-04T10:53:24.208Z,1144
2023-01-04T10:58:42.704Z,1145
2023-01-04T11:04:00.994Z,1143
2023-01-04T11:09:24.703Z,1154
2023-01-04T11:14:44.075Z,1177
2023-01-04T11:20:02.815Z,1176
2023-01-04T11:25:37.229Z,1171
2023-01-04T11:30:55.832Z,1167
2023-01-04T11:36:14.444Z,1169
2023-01-04T11:41:32.390Z,1165
2023-01-04T11:46:50.601Z,1163
2023-01-04T11:52:08.834Z,1150
2023-01-04T11:57:27.317Z,1152
2023-01-04T12:03:02.271Z,1144
2023-01-04T12:08:21.400Z,1138
2023-01-04T12:13:39.877Z,1132
2023-01-04T12:18:58.420Z,1128
2023-01-04T12:24:16.337Z,1123
2023-01-04T12:29:34.580Z,1116
2023-01-04T12:34:53.094Z,1120
2023-01-04T12:40:11.349Z,1113
2023-01-04T12:45:29.530Z,1112
2023-01-04T12:50:58.167Z,1100
2023-01-04T12:56:50.840Z,1073
2023-01-04T13:02:09.433Z,1076
2023-01-04T13:07:28.355Z,1135
2023-01-04T13:12:46.517Z,1115
2023-01-04T13:18:04.752Z,1112
2023-01-04T13:23:23.270Z,1102
2023-01-04T13:28:41.724Z,1102
2023-01-04T13:34:00.499Z,1100
2023-01-04T13:39:19.303Z,1097
2023-01-04T13:45:08.976Z,1099
2023-01-04T13:50:40.302Z,1098
2023-01-04T13:55:58.860Z,1099
2023-01-04T14:01:17.697Z,1099
2023-01-04T14:06:36.473Z,1096
2023-01-04T14:11:58.032Z,1095
2023-01-04T14:40:08.971Z,1080
2023-01-04T14:45:27.477Z,1074
2023-01-04T14:50:45.972Z,1067
2023-01-04T14:56:04.290Z,1068
2023-01-04T15:01:22.886Z,1076
2023-01-04T15:06:42.102Z,1078
2023-01-04T15:12:00.907Z,1085
2023-01-04T15:17:19.130Z,1077
2023-01-04T15:22:37.893Z,1079
2023-01-04T15:27:56.684Z,1075
2023-01-04T15:33:14.922Z,1076
2023-01-04T15:38:33.679Z,1078
2023-01-04T15:43:52.467Z,1074
2023-01-04T15:49:15.166Z,1070
2023-01-04T15:54:35.884Z,1062
2023-01-04T15:59:54.435Z,1066
2023-01-04T16:05:12.925Z,1072
2023-01-04T16:10:31.423Z,1069
2023-01-04T16:15:49.709Z,1090
2023-01-04T16:21:08.246Z,1098
2023-01-04T16:26:26.452Z,1101
2023-01-04T16:31:45.025Z,1102
2023-01-04T16:37:04.261Z,1109
2023-01-04T16:42:22.734Z,1117
2023-01-04T16:47:40.894Z,1126
2023-01-04T16:52:59.019Z,1178
2023-01-04T16:58:17.808Z,1227
2023-01-04T17:03:36.167Z,1200
2023-01-04T17:08:54.726Z,1197
2023-01-04T17:14:13.221Z,1196
2023-01-04T17:19:31.461Z,1199
2023-01-04T17:24:49.776Z,1222
2023-01-04T17:30:08.282Z,1268
2023-01-04T17:35:27.115Z,1258
2023-01-04T17:40:45.928Z,1248
2023-01-04T17:46:04.704Z,1242
2023-01-04T17:51:23.131Z,1240
2023-01-04T17:56:41.898Z,1242
2023-01-04T18:02:00.487Z,1239
2023-01-04T18:07:19.229Z,1241
2023-01-04T18:12:23.118Z,1272
2023-01-04T18:17:41.594Z,1283
2023-01-04T18:23:04.069Z,1293
2023-01-04T18:28:22.273Z,1305
2023-01-04T18:33:41.070Z,1316
2023-01-04T18:38:59.875Z,1375
2023-01-04T18:44:35.091Z,1436
2023-01-04T18:49:57.714Z,1397
2023-01-04T18:55:16.253Z,1398
2023-01-04T19:00:34.902Z,1408
2023-01-04T19:05:53.205Z,1420
2023-01-04T19:11:11.425Z,1437
2023-01-04T19:16:29.933Z,1436
2023-01-04T19:21:48.349Z,1432
2023-01-04T19:27:06.626Z,1442
2023-01-04T19:32:09.466Z,1457
2023-01-04T19:37:30.676Z,1466
2023-01-04T19:42:48.610Z,1471
2023-01-04T19:48:07.117Z,1484
2023-01-04T19:53:25.356Z,1494
2023-01-04T19:58:43.850Z,1499
2023-01-04T20:04:02.433Z,1509
2023-01-04T20:09:20.926Z,1517
2023-01-04T20:14:39.149Z,1517
2023-01-04T20:19:57.375Z,1524
2023-01-04T20:25:16.124Z,1547
2023-01-04T20:30:35.056Z,1558
2023-01-04T20:35:53.925Z,1577
2023-01-04T20:41:12.681Z,1598
2023-01-04T20:46:31.564Z,1622
2023-01-04T20:51:50.316Z,1634
2023-01-04T20:57:09.078Z,1657
2023-01-04T21:02:27.756Z,1685
2023-01-04T21:07:55.489Z,1692
2023-01-04T21:13:14.248Z,1698
2023-01-04T21:18:32.466Z,1742
2023-01-04T21:23:56.235Z,1788
2023-01-04T21:29:16.327Z,1808
2023-01-04T21:34:34.843Z,1838
2023-01-04T21:39:53.293Z,1859
2023-01-04T21:45:11.555Z,1870
2023-01-04T21:50:30.035Z,1863
2023-01-04T21:55:48.137Z,1869
2023-01-04T22:01:06.619Z,1874
2023-01-04T22:06:24.676Z,1883
2023-01-04T22:11:43.163Z,1882
2023-01-04T22:17:01.900Z,1882
2023-01-04T22:22:20.407Z,1875
2023-01-04T22:27:38.932Z,1880
2023-01-04T22:32:57.134Z,1895
2023-01-04T22:38:15.637Z,1887
2023-01-04T22:43:34.114Z,1880
2023-01-04T22:48:52.905Z,1877
2023-01-04T22:54:11.144Z,1880
2023-01-04T22:59:29.625Z,1890
2023-01-04T23:04:48.407Z,1886
2023-01-04T23:10:07.187Z,1909
2023-01-04T23:15:25.383Z,1923
2023-01-04T23:20:43.864Z,1928
2023-01-04T23:26:02.773Z,1932
2023-01-04T23:31:21.117Z,1940
2023-01-04T23:36:39.788Z,1936
2023-01-04T23:41:58.277Z,1943
2023-01-04T23:47:16.752Z,1939
2023-01-04T23:52:35.255Z,1933
2023-01-04T23:57:54.096Z,1938
